Time;durP1;ratioP1;P1;durP2;ratioP2;P2;SDS_P1;SDS_P2;PMS_P1;PMS_P2;Temp;Humidity;BMP_temperature;BMP_pressure;BME280_temperature;BME280_humidity;BME280_pressure;Samples;Min_cycle;Max_cycle;Signal;HPM_P1;HPM_P2
2022/03/09 00:01:40;;;;;;;14.80;6.20;;;;;;;-1.45;74.68;100599.64;124270;1099;104348;-80
2022/03/09 00:04:11;;;;;;;16.60;6.43;;;;;;;-1.45;75.32;100590.27;124121;1099;104235;-80
2022/03/09 00:06:44;;;;;;;14.93;5.97;;;;;;;-1.43;75.82;100592.05;124510;1097;104255;-80
2022/03/09 00:09:16;;;;;;;14.10;5.83;;;;;;;-1.45;75.86;100590.27;124782;1099;102770;-80
2022/03/09 00:11:47;;;;;;;15.93;6.13;;;;;;;-1.46;75.06;100588.45;124738;1099;104267;-80
2022/03/09 00:14:19;;;;;;;14.80;5.70;;;;;;;-1.46;75.28;100588.45;124740;1099;104399;-81
2022/03/09 00:16:52;;;;;;;15.53;5.87;;;;;;;-1.47;75.87;100594.36;124482;1099;104258;-80
2022/03/09 00:19:25;;;;;;;14.58;6.20;;;;;;;-1.48;75.33;100596.80;124599;1099;104258;-81
2022/03/09 00:21:57;;;;;;;11.63;5.50;;;;;;;-1.49;75.36;100587.30;124407;1099;104312;-80
2022/03/09 00:24:29;;;;;;;12.40;5.80;;;;;;;-1.52;74.64;100587.93;124178;1099;104255;-80
2022/03/09 00:27:02;;;;;;;13.87;5.80;;;;;;;-1.54;75.65;100584.34;124075;1099;104210;-80
2022/03/09 00:29:33;;;;;;;13.23;5.67;;;;;;;-1.54;74.81;100589.48;124119;1099;104249;-80
2022/03/09 00:32:06;;;;;;;11.03;5.67;;;;;;;-1.57;74.75;100594.38;124368;1099;104229;-80
2022/03/09 00:34:37;;;;;;;;;;;;;;;-1.60;75.80;100591.53;124533;1099;104162;-80
2022/03/09 00:37:09;;;;;;;13.60;5.67;;;;;;;-1.63;75.54;100584.45;124590;1099;104364;-80
2022/03/09 00:39:40;;;;;;;14.43;5.83;;;;;;;-1.64;75.37;100589.45;124416;1099;104361;-80
2022/03/09 00:42:14;;;;;;;12.83;5.20;;;;;;;-1.64;75.32;100586.88;124510;1099;104233;-80
2022/03/09 00:44:45;;;;;;;14.45;5.60;;;;;;;-1.64;76.22;100586.88;124677;1099;104287;-80
2022/03/09 00:47:19;;;;;;;12.67;5.30;;;;;;;-1.65;75.96;100586.00;124186;1097;104168;-80
2022/03/09 00:49:50;;;;;;;12.93;5.45;;;;;;;-1.67;75.88;100590.13;124210;1099;104232;-79
2022/03/09 00:52:26;;;;;;;13.60;6.07;;;;;;;-1.69;75.65;100590.75;124409;1097;104374;-79
2022/03/09 00:54:57;;;;;;;13.40;5.50;;;;;;;-1.74;76.16;100592.92;124362;1099;104299;-79
2022/03/09 00:57:28;;;;;;;16.27;6.27;;;;;;;-1.76;76.36;100589.33;124301;1097;104239;-80
2022/03/09 01:00:00;;;;;;;14.47;5.70;;;;;;;-1.80;75.01;100587.25;124204;1099;104258;-79
2022/03/09 01:02:31;;;;;;;12.73;5.90;;;;;;;-1.84;75.85;100588.67;124417;1099;104232;-79
2022/03/09 01:05:02;;;;;;;11.53;5.50;;;;;;;-1.85;76.19;100592.00;124318;1099;104172;-79
2022/03/09 01:07:34;;;;;;;13.37;6.00;;;;;;;-1.83;75.75;100592.13;124261;1097;104213;-79
2022/03/09 01:10:08;;;;;;;13.55;5.80;;;;;;;-1.82;76.16;100589.69;124119;1099;104333;-79
2022/03/09 01:12:40;;;;;;;12.05;5.60;;;;;;;-1.82;75.58;100589.69;124064;1099;104318;-79
2022/03/09 01:15:16;;;;;;;11.60;5.53;;;;;;;-1.80;75.37;100587.25;124284;1099;104232;-79
2022/03/09 01:17:47;;;;;;;13.43;5.73;;;;;;;-1.79;76.02;100595.86;124128;1097;104374;-79
2022/03/09 01:20:19;;;;;;;12.00;5.70;;;;;;;-1.79;75.57;100590.72;124229;1099;104313;-79
2022/03/09 01:22:52;;;;;;;15.00;6.10;;;;;;;-1.81;75.76;100593.16;124154;1097;104265;-79
2022/03/09 01:25:28;;;;;;;16.73;6.57;;;;;;;-1.84;75.31;100598.95;124310;1099;104239;-79
2022/03/09 01:27:59;;;;;;;14.27;6.27;;;;;;;-1.84;75.85;100587.74;124133;1098;104214;-79
2022/03/09 01:30:30;;;;;;;16.77;6.90;;;;;;;-1.86;75.48;100597.02;124193;1099;104326;-79
2022/03/09 01:33:03;;;;;;;13.43;6.23;;;;;;;-1.86;76.50;100595.33;124158;1099;104741;-79
2022/03/09 01:35:34;;;;;;;13.57;6.70;;;;;;;-1.86;75.80;100597.02;124248;1099;104332;-79
2022/03/09 01:38:06;;;;;;;14.27;6.50;;;;;;;-1.88;76.17;100591.73;124729;1097;104232;-80
2022/03/09 01:40:40;;;;;;;13.37;6.17;;;;;;;-1.89;76.25;100592.49;124367;1099;104257;-79
2022/03/09 01:43:14;;;;;;;12.80;5.70;;;;;;;-1.89;76.45;100589.03;124654;1099;104751;-79
2022/03/09 01:45:45;;;;;;;18.12;6.45;;;;;;;-1.93;76.39;100594.66;124027;1099;104220;-79
2022/03/09 01:48:17;;;;;;;12.43;6.13;;;;;;;-1.96;75.80;100592.75;124292;1099;104245;-80
2022/03/09 01:50:49;;;;;;;15.57;6.03;;;;;;;-1.99;75.28;100593.37;124268;1097;104287;-79
2022/03/09 01:53:23;;;;;;;14.37;5.60;;;;;;;-2.01;76.17;100599.14;124509;1099;104274;-79
2022/03/09 01:55:55;;;;;;;16.37;6.27;;;;;;;-2.05;76.12;100594.52;124164;1099;104281;-80
2022/03/09 01:58:26;;;;;;;15.05;6.00;;;;;;;-2.08;75.37;100601.97;124328;1097;104280;-79
2022/03/09 02:00:57;;;;;;;16.77;6.67;;;;;;;-2.14;75.28;100614.28;124414;1099;104179;-80
2022/03/09 02:03:28;;;;;;;18.00;7.00;;;;;;;-2.20;76.45;100605.27;124284;1099;104398;-79
2022/03/09 02:06:01;;;;;;;15.87;6.80;;;;;;;-2.24;76.48;100605.76;124290;1099;104415;-80
2022/03/09 02:11:22;;;;;;;15.77;6.60;;;;;;;-2.32;76.01;100605.84;124184;1099;104299;-80
2022/03/09 02:13:53;;;;;;;16.23;6.77;;;;;;;-2.35;75.21;100606.49;124214;1097;104674;-80
2022/03/09 02:16:25;;;;;;;16.33;6.80;;;;;;;-2.36;75.63;100608.14;124319;1098;104265;-80
2022/03/09 02:19:02;;;;;;;15.40;7.10;;;;;;;-2.37;76.17;100623.42;124240;1098;104354;-79
2022/03/09 02:21:37;;;;;;;15.80;6.57;;;;;;;-2.40;75.91;100612.87;124166;1099;104210;-80
2022/03/09 02:24:11;;;;;;;16.40;6.70;;;;;;;-2.41;75.12;100617.12;124114;1099;104248;-80
2022/03/09 02:26:43;;;;;;;17.45;6.78;;;;;;;-2.40;75.66;100625.72;124122;1098;104242;-80
2022/03/09 02:29:16;;;;;;;14.50;6.57;;;;;;;-2.41;76.06;100626.50;124244;1098;104233;-79
2022/03/09 02:31:49;;;;;;;17.27;7.00;;;;;;;-2.40;76.35;100623.15;124030;1099;104341;-79
2022/03/09 02:34:24;;;;;;;16.80;7.97;;;;;;;-2.42;75.99;100625.58;124325;1099;104287;-79
2022/03/09 02:36:58;;;;;;;16.95;7.30;;;;;;;-2.40;75.82;100624.08;124166;1099;104309;-80
2022/03/09 02:39:29;;;;;;;19.30;7.47;;;;;;;-2.37;75.86;100633.70;124329;1098;104242;-80
2022/03/09 02:42:01;;;;;;;16.77;7.60;;;;;;;-2.35;75.10;100638.22;124246;1099;104338;-80
2022/03/09 02:44:32;;;;;;;19.13;8.07;;;;;;;-2.32;76.07;100632.47;124206;1097;104255;-79
2022/03/09 02:47:04;;;;;;;18.63;7.97;;;;;;;-2.30;76.06;100637.75;124327;1099;104714;-80
2022/03/09 02:49:35;;;;;;;16.93;7.70;;;;;;;-2.29;75.07;100626.67;124280;1099;104322;-80
2022/03/09 02:52:08;;;;;;;21.00;8.00;;;;;;;-2.28;75.25;100628.48;124330;1097;104159;-80
2022/03/09 02:54:42;;;;;;;17.30;7.80;;;;;;;-2.25;76.00;100632.22;124239;1099;104521;-80
2022/03/09 02:57:14;;;;;;;20.50;7.90;;;;;;;-2.24;75.71;100634.04;124055;1099;104310;-80
2022/03/09 02:59:49;;;;;;;15.53;6.93;;;;;;;-2.24;75.33;100636.61;124239;1098;104782;-80
2022/03/09 03:02:20;;;;;;;18.40;7.65;;;;;;;-2.22;75.17;100637.64;124158;1099;104367;-79
2022/03/09 03:04:51;;;;;;;16.70;7.20;;;;;;;-2.19;74.97;100632.77;124214;1099;104443;-79
2022/03/09 03:07:23;;;;;;;15.70;6.63;;;;;;;-2.18;76.12;100642.30;123850;1099;104349;-79
2022/03/09 03:09:54;;;;;;;18.30;6.93;;;;;;;-2.18;75.24;100634.58;124418;1099;104418;-79
2022/03/09 03:12:26;;;;;;;17.33;7.43;;;;;;;-2.17;76.02;100645.75;124168;1099;104598;-79
2022/03/09 03:14:57;;;;;;;16.10;6.97;;;;;;;-2.15;76.24;100644.25;124147;1099;104396;-79
2022/03/09 03:17:28;;;;;;;17.63;7.30;;;;;;;-2.14;76.15;100646.03;124157;1099;104217;-79
2022/03/09 03:19:59;;;;;;;16.97;6.90;;;;;;;-2.12;75.30;100641.95;124181;1099;104168;-80
2022/03/09 03:22:31;;;;;;;17.30;7.40;;;;;;;-2.09;75.86;100647.33;124150;1099;104293;-80
2022/03/09 03:25:04;;;;;;;18.87;7.40;;;;;;;-2.10;76.01;100645.55;124132;1099;104361;-80
2022/03/09 03:27:36;;;;;;;17.07;7.20;;;;;;;-2.09;75.89;100638.72;124405;1099;104281;-80
2022/03/09 03:30:09;;;;;;;15.30;6.53;;;;;;;-2.08;75.87;100643.11;124535;1097;104236;-80
2022/03/09 03:32:41;;;;;;;18.70;7.60;;;;;;;-2.08;75.00;100644.00;124296;1098;104358;-80
2022/03/09 03:35:12;;;;;;;16.70;6.83;;;;;;;-2.09;76.12;100642.19;124412;1099;104316;-80
2022/03/09 03:37:44;;;;;;;14.00;6.47;;;;;;;-2.08;75.60;100644.00;124371;1099;104335;-80
2022/03/09 03:40:15;;;;;;;15.80;6.90;;;;;;;-2.08;76.11;100640.53;124306;1099;104252;-80
2022/03/09 03:42:46;;;;;;;17.70;7.00;;;;;;;-2.06;76.37;100649.27;124238;1099;104310;-80
2022/03/09 03:45:17;;;;;;;14.17;6.87;;;;;;;-2.05;75.30;100648.52;124115;1099;104258;-80
2022/03/09 03:47:49;;;;;;;18.23;7.47;;;;;;;-2.04;76.38;100651.23;124268;1097;104229;-80
2022/03/09 03:50:20;;;;;;;20.23;7.67;;;;;;;-2.03;76.38;100652.12;124610;1099;104475;-80
2022/03/09 03:52:52;;;;;;;17.47;6.93;;;;;;;-2.03;75.94;100653.01;124023;1096;104408;-80
2022/03/09 03:55:26;;;;;;;16.65;7.05;;;;;;;-2.03;75.57;100649.55;124186;1099;104290;-80
2022/03/09 03:57:59;;;;;;;16.43;6.67;;;;;;;-2.02;75.69;100648.80;123997;1099;104457;-80
2022/03/09 04:00:31;;;;;;;18.50;7.37;;;;;;;-2.04;75.24;100646.08;123799;1099;104277;-80
2022/03/09 04:03:03;;;;;;;15.67;7.03;;;;;;;-2.02;75.84;100651.36;123926;1099;104341;-81
2022/03/09 04:05:35;;;;;;;14.93;6.77;;;;;;;-2.03;76.61;100650.44;123993;1099;104290;-81
2022/03/09 04:08:07;;;;;;;16.53;6.70;;;;;;;-2.03;76.42;100652.12;124294;1099;104351;-80
2022/03/09 04:10:39;;;;;;;20.00;7.57;;;;;;;-2.05;76.12;100657.13;124350;1099;104175;-80
2022/03/09 04:13:10;;;;;;;19.35;7.85;;;;;;;-2.04;76.98;100650.30;124181;1099;104280;-79
2022/03/09 04:15:41;;;;;;;20.57;8.17;;;;;;;-2.06;76.19;100656.99;124379;1099;104345;-80
2022/03/09 04:18:13;;;;;;;18.37;6.73;;;;;;;-2.05;77.45;100664.84;124246;1097;104256;-79
2022/03/09 04:20:44;;;;;;;18.10;7.63;;;;;;;-2.07;77.03;100661.24;124276;1099;104741;-79
2022/03/09 04:23:15;;;;;;;20.70;8.70;;;;;;;-2.08;77.13;100661.11;124234;1097;104217;-79
2022/03/09 04:25:47;;;;;;;23.53;10.47;;;;;;;-2.08;77.02;100664.57;124151;1099;104251;-81
2022/03/09 04:28:19;;;;;;;21.17;10.17;;;;;;;-2.06;76.65;100669.84;124202;1099;104399;-80
2022/03/09 04:30:50;;;;;;;23.07;9.70;;;;;;;-2.06;78.01;100667.28;124205;1098;104332;-80
2022/03/09 04:33:22;;;;;;;27.70;11.40;;;;;;;-2.06;77.11;100668.17;124319;1099;104307;-80
2022/03/09 04:35:54;;;;;;;38.67;18.07;;;;;;;-2.04;76.47;100673.45;124398;1099;104239;-80
2022/03/09 04:38:25;;;;;;;46.10;21.27;;;;;;;-2.03;77.24;100677.84;124048;1099;104216;-80
2022/03/09 04:40:56;;;;;;;45.90;20.67;;;;;;;-2.02;77.32;100677.08;123695;1099;104389;-81
2022/03/09 04:43:28;;;;;;;43.20;17.73;;;;;;;-2.01;76.49;100681.44;123638;1099;104260;-80
2022/03/09 04:46:01;;;;;;;38.10;16.20;;;;;;;-2.00;77.15;100679.00;123669;1099;104345;-81
2022/03/09 04:48:33;;;;;;;40.43;18.00;;;;;;;-2.00;76.44;100680.67;123635;1097;104376;-81
2022/03/09 04:51:05;;;;;;;35.77;15.77;;;;;;;-2.00;76.05;100680.67;123650;1098;104274;-81
2022/03/09 04:53:36;;;;;;;33.97;16.20;;;;;;;-2.00;76.73;100693.54;123618;1099;104271;-81
2022/03/09 04:56:08;;;;;;;32.63;14.33;;;;;;;-1.99;77.00;100690.20;123602;1099;104294;-81
2022/03/09 04:58:39;;;;;;;29.27;13.10;;;;;;;-1.96;77.29;100695.63;123744;1099;104329;-82
2022/03/09 05:01:11;;;;;;;21.87;10.00;;;;;;;-1.95;77.24;100697.41;124025;1099;104233;-81
2022/03/09 05:03:42;;;;;;;22.00;9.83;;;;;;;-1.97;76.26;100706.67;123863;1099;104233;-81
2022/03/09 05:06:14;;;;;;;19.37;7.83;;;;;;;-1.99;76.57;100703.95;123846;1096;104334;-81
2022/03/09 05:08:46;;;;;;;18.67;8.03;;;;;;;-1.98;75.73;100707.42;124314;1099;104251;-82
2022/03/09 05:11:17;;;;;;;19.10;8.57;;;;;;;-1.96;77.59;100711.05;124276;1099;104387;-81
2022/03/09 05:13:49;;;;;;;19.77;8.77;;;;;;;-1.94;76.45;100716.34;124405;1099;104272;-81
2022/03/09 05:16:21;;;;;;;18.10;8.17;;;;;;;-1.92;76.73;100725.97;124133;1099;104744;-81
2022/03/09 05:18:53;;;;;;;18.20;8.10;;;;;;;-1.92;76.73;100723.40;124040;1099;104317;-81
2022/03/09 05:21:24;;;;;;;19.10;8.90;;;;;;;-1.92;76.64;100733.69;124003;1097;104271;-82
2022/03/09 05:23:56;;;;;;;18.93;8.90;;;;;;;-1.95;77.25;100743.70;124032;1099;104186;-82
2022/03/09 05:26:27;;;;;;;20.73;9.20;;;;;;;-1.96;77.12;100739.34;124062;1099;104335;-81
2022/03/09 05:28:59;;;;;;;25.67;9.27;;;;;;;-1.96;77.38;100757.35;123951;1099;104319;-81
2022/03/09 05:31:30;;;;;;;20.60;9.37;;;;;;;-2.02;76.81;100749.98;123799;1099;104322;-81
2022/03/09 05:34:02;;;;;;;20.93;9.77;;;;;;;-2.02;76.63;100751.66;124162;1098;104281;-80
2022/03/09 05:36:33;;;;;;;20.90;9.87;;;;;;;-2.02;77.14;100756.80;124249;1099;104229;-81
2022/03/09 05:39:05;;;;;;;23.80;10.70;;;;;;;-2.01;77.16;100758.58;124053;1097;104232;-81
2022/03/09 05:41:37;;;;;;;22.30;10.03;;;;;;;-1.97;76.64;100770.07;124055;1099;104329;-79
2022/03/09 05:44:08;;;;;;;21.45;9.85;;;;;;;-1.92;77.46;100769.70;124246;1099;104360;-80
2022/03/09 05:46:40;;;;;;;23.37;11.47;;;;;;;-1.88;76.92;100776.94;124408;1099;104233;-79
2022/03/09 05:49:11;;;;;;;24.70;12.57;;;;;;;-1.84;77.22;100780.67;124387;1099;104258;-79
2022/03/09 05:51:44;;;;;;;31.57;14.70;;;;;;;-1.76;76.47;100781.36;124299;1099;112914;-79
2022/03/09 05:54:15;;;;;;;33.37;15.53;;;;;;;-1.68;77.01;100778.71;124468;1099;104345;-79
2022/03/09 05:56:47;;;;;;;32.97;15.23;;;;;;;-1.60;76.21;100778.50;124048;1099;104322;-79
2022/03/09 05:59:18;;;;;;;29.07;14.13;;;;;;;-1.55;76.37;100777.22;123967;1099;104293;-79
2022/03/09 06:01:49;;;;;;;26.00;12.20;;;;;;;-1.50;76.76;100783.67;123769;1098;105614;-81
2022/03/09 06:04:21;;;;;;;25.00;11.00;;;;;;;-1.49;76.60;100780.34;124148;1099;104636;-79
2022/03/09 06:06:52;;;;;;;28.07;13.30;;;;;;;-1.43;76.96;100792.83;124300;1099;104329;-79
2022/03/09 06:09:25;;;;;;;28.47;13.50;;;;;;;-1.43;75.49;100787.67;124130;1099;104348;-79
2022/03/09 06:11:57;;;;;;;27.13;13.00;;;;;;;-1.43;75.46;100783.45;124723;1099;104309;-80
2022/03/09 06:14:30;;;;;;;24.83;12.30;;;;;;;-1.45;76.01;100796.19;124389;1099;104271;-80
2022/03/09 06:17:01;;;;;;;21.97;10.43;;;;;;;-1.47;75.26;100797.70;125148;1099;104178;-79
2022/03/09 06:19:33;;;;;;;22.70;10.00;;;;;;;-1.51;75.21;100805.02;124274;1098;104271;-79
2022/03/09 06:22:05;;;;;;;21.83;10.13;;;;;;;-1.54;75.32;100815.97;124453;1099;104412;-79
2022/03/09 06:24:39;;;;;;;22.58;9.63;;;;;;;-1.58;75.00;100815.55;123839;1098;104322;-80
2022/03/09 06:27:12;;;;;;;23.03;9.77;;;;;;;-1.59;76.04;100819.81;124080;1099;104194;-78
2022/03/09 06:29:58;;;;;;;24.27;11.20;;;;;;;-1.57;75.95;100820.84;123875;1099;104443;-78
2022/03/09 06:32:29;;;;;;;26.67;12.63;;;;;;;-1.55;75.76;100818.41;123947;1099;104278;-80
2022/03/09 06:35:02;;;;;;;27.83;13.20;;;;;;;-1.49;75.92;100818.95;123994;1099;104390;-79
2022/03/09 06:37:34;;;;;;;25.17;11.27;;;;;;;-1.44;75.62;100817.67;123932;1099;104299;-79
2022/03/09 06:40:08;;;;;;;22.60;10.30;;;;;;;-1.47;75.71;100818.30;123800;1097;104808;-79
2022/03/09 06:42:42;;;;;;;23.60;9.70;;;;;;;-1.48;75.54;100837.11;124062;1099;104274;-79
2022/03/09 06:45:14;;;;;;;23.60;10.93;;;;;;;-1.46;75.71;100834.66;124049;1099;104258;-79
2022/03/09 06:47:46;;;;;;;20.40;9.10;;;;;;;-1.50;74.19;100843.77;123927;1099;104373;-78
2022/03/09 06:50:19;;;;;;;25.23;11.13;;;;;;;-1.54;73.66;100833.98;123844;1099;104660;-78
2022/03/09 06:52:51;;;;;;;24.60;11.33;;;;;;;-1.52;74.27;100844.41;123956;1099;104268;-78
2022/03/09 06:55:22;;;;;;;25.23;11.33;;;;;;;-1.49;74.33;100840.44;124168;1099;104287;-78
2022/03/09 06:57:54;;;;;;;26.70;11.97;;;;;;;-1.47;74.83;100849.19;124355;1098;104220;-79
2022/03/09 07:00:25;;;;;;;26.33;12.37;;;;;;;-1.45;74.94;100846.75;124121;1099;104451;-78
2022/03/09 07:02:59;;;;;;;23.97;11.97;;;;;;;-1.45;74.60;100846.75;124037;1099;104302;-77
2022/03/09 07:05:29;;;;;;;;;;;;;;;-1.39;74.61;100851.55;124026;1099;104264;-79
2022/03/09 07:08:03;;;;;;;23.00;10.87;;;;;;;-1.35;74.76;100854.53;124493;1099;104293;-78
2022/03/09 07:10:35;;;;;;;25.07;11.33;;;;;;;-1.28;73.91;100861.12;124200;1099;104335;-82
2022/03/09 07:13:07;;;;;;;;;;;;;;;-1.36;73.23;100831.23;124012;1099;104740;-81
2022/03/09 07:15:38;;;;;;;23.80;10.67;;;;;;;-1.21;73.72;100849.71;124410;1099;104421;-81
2022/03/09 07:18:13;;;;;;;24.97;10.43;;;;;;;-1.23;73.70;100852.15;124270;1097;104267;-80
2022/03/09 07:20:45;;;;;;;21.60;9.77;;;;;;;-1.22;73.65;100851.36;124130;1099;104338;-80
2022/03/09 07:23:19;;;;;;;26.03;10.30;;;;;;;-1.19;73.91;100855.89;124210;1097;104252;-80
2022/03/09 07:25:51;;;;;;;24.27;10.55;;;;;;;-1.14;73.79;100844.31;124128;1099;104364;-80
2022/03/09 07:28:27;;;;;;;22.27;10.00;;;;;;;-1.02;74.52;100852.22;124047;1099;104274;-79
2022/03/09 07:30:59;;;;;;;21.30;9.95;;;;;;;-0.97;73.38;100850.94;124001;1099;104309;-79
2022/03/09 07:33:32;;;;;;;28.80;11.77;;;;;;;-0.84;73.47;100845.17;123870;1099;104265;-80
2022/03/09 07:36:11;;;;;;;28.73;12.17;;;;;;;-0.66;73.34;100851.02;124901;1099;104223;-79
2022/03/09 07:38:47;;;;;;;26.37;10.77;;;;;;;-0.51;73.36;100853.98;125056;1098;104258;-79
2022/03/09 07:41:19;;;;;;;20.00;9.60;;;;;;;-0.43;73.57;100846.14;124324;1098;104220;-81
2022/03/09 07:43:59;;;;;;;23.57;10.37;;;;;;;-0.27;73.94;100850.02;124056;1099;104345;-82
2022/03/09 07:46:35;;;;;;;23.97;10.93;;;;;;;-0.12;72.91;100845.27;124776;1099;104246;-80
2022/03/09 07:49:15;;;;;;;20.17;10.33;;;;;;;-0.09;72.45;100848.09;125358;1099;104309;-81
2022/03/09 07:51:55;;;;;;;21.50;10.03;;;;;;;-0.05;72.07;100844.98;124508;1099;104344;-79
2022/03/09 07:54:33;;;;;;;23.90;10.80;;;;;;;-0.02;71.82;100845.23;124537;1099;107744;-80
2022/03/09 07:57:19;;;;;;;26.70;12.73;;;;;;;0.03;72.03;100838.77;123963;1099;104245;-79
2022/03/09 07:59:54;;;;;;;23.63;10.33;;;;;;;0.15;72.75;100833.73;123976;1099;104239;-80
2022/03/09 08:02:31;;;;;;;19.55;9.73;;;;;;;0.28;72.43;100838.22;124026;1099;104264;-81
2022/03/09 08:05:04;;;;;;;21.87;9.33;;;;;;;0.38;71.75;100850.22;123950;1099;104414;-81
2022/03/09 08:07:47;;;;;;;24.10;10.10;;;;;;;0.37;71.30;100838.08;124630;1099;104265;-83
2022/03/09 08:10:43;;;;;;;21.05;9.80;;;;;;;0.53;71.01;100838.53;124641;1099;104357;-81
2022/03/09 08:13:20;;;;;;;19.90;9.20;;;;;;;0.56;69.46;100851.69;124442;1099;104261;-82
2022/03/09 08:15:57;;;;;;;21.70;10.80;;;;;;;0.74;70.69;100843.65;124322;1099;104242;-82
2022/03/09 08:18:33;;;;;;;19.87;9.77;;;;;;;0.83;70.38;100854.72;124702;1099;104245;-81
2022/03/09 08:21:13;;;;;;;19.10;9.00;;;;;;;0.86;68.09;100844.64;124886;1099;104239;-80
2022/03/09 08:23:59;;;;;;;18.17;8.47;;;;;;;0.81;67.42;100859.77;124919;1099;104201;-80
2022/03/09 08:26:41;;;;;;;20.23;9.07;;;;;;;0.75;68.47;100836.02;124454;1099;104278;-80
2022/03/09 08:29:29;;;;;;;22.67;9.63;;;;;;;0.82;69.51;100835.72;124184;1099;104328;-79
2022/03/09 08:32:18;;;;;;;18.53;8.97;;;;;;;0.85;68.72;100837.66;124041;1097;104261;-77
2022/03/09 08:35:09;;;;;;;20.33;9.17;;;;;;;0.85;69.85;100833.37;124497;1097;104242;-82
2022/03/09 08:37:41;;;;;;;20.30;9.10;;;;;;;0.83;69.00;100834.05;124131;1099;104270;-80
2022/03/09 08:40:15;;;;;;;18.03;8.47;;;;;;;0.68;68.46;100836.30;123996;1099;104244;-79
2022/03/09 08:42:51;;;;;;;19.97;9.70;;;;;;;0.58;68.67;100841.48;123996;1098;104304;-79
2022/03/09 08:45:26;;;;;;;21.70;10.47;;;;;;;0.46;69.50;100846.58;123812;1099;118869;-80
2022/03/09 08:48:02;;;;;;;24.80;11.43;;;;;;;0.38;68.86;100856.28;124434;1099;104261;-78
2022/03/09 08:50:52;;;;;;;21.23;9.73;;;;;;;0.34;68.40;100837.06;123946;1099;104249;-79
2022/03/09 08:53:31;;;;;;;19.50;9.90;;;;;;;0.26;68.94;100851.00;124149;1099;104277;-78
2022/03/09 08:56:16;;;;;;;21.37;9.90;;;;;;;0.16;68.41;100861.36;123844;1099;104270;-79
2022/03/09 08:58:51;;;;;;;22.27;10.33;;;;;;;0.14;69.22;100842.23;124344;1099;104320;-81
2022/03/09 09:01:24;;;;;;;24.57;11.93;;;;;;;0.33;68.58;100848.16;124165;1099;104333;-81
2022/03/09 09:04:01;;;;;;;21.07;9.93;;;;;;;0.46;68.19;100846.58;125936;1099;104265;-82
2022/03/09 09:06:43;;;;;;;19.40;8.83;;;;;;;0.46;67.79;100850.05;125095;1098;104235;-79
2022/03/09 09:09:20;;;;;;;21.95;9.70;;;;;;;0.39;68.30;100844.27;123734;1099;104721;-77
2022/03/09 09:12:04;;;;;;;14.77;7.53;;;;;;;0.32;67.20;100864.41;124146;1099;104334;-80
2022/03/09 09:14:41;;;;;;;21.60;9.60;;;;;;;0.45;67.85;100860.25;124700;1098;104211;-81
2022/03/09 09:17:16;;;;;;;18.92;8.88;;;;;;;0.54;67.79;100851.56;124313;1099;104322;-82
2022/03/09 09:19:50;;;;;;;21.30;9.70;;;;;;;0.73;68.09;100854.75;124236;1099;104265;-82
2022/03/09 09:22:28;;;;;;;18.55;9.10;;;;;;;0.82;66.51;100866.72;123748;1099;104695;-78
2022/03/09 09:25:12;;;;;;;20.37;9.40;;;;;;;0.89;67.53;100858.69;123936;1097;104373;-78
2022/03/09 09:27:46;;;;;;;18.60;8.83;;;;;;;0.87;66.79;100861.92;123956;1099;104274;-81
2022/03/09 09:30:23;;;;;;;20.10;8.65;;;;;;;1.05;66.71;100859.91;124592;1099;104650;-81
2022/03/09 09:33:12;;;;;;;18.40;8.27;;;;;;;1.01;65.08;100858.78;124342;1098;104189;-80
2022/03/09 09:35:49;;;;;;;20.57;9.53;;;;;;;1.13;66.72;100865.69;124349;1099;104200;-80
2022/03/09 09:38:29;;;;;;;19.67;8.90;;;;;;;1.24;66.78;100862.27;124990;1099;104187;-82
2022/03/09 09:41:48;;;;;;;19.00;8.60;;;;;;;1.18;65.96;100854.91;124448;1099;104302;-80
2022/03/09 09:45:21;;;;;;;15.80;7.70;;;;;;;1.33;65.73;100865.56;124901;1098;104185;-80
2022/03/09 09:48:01;;;;;;;16.50;8.23;;;;;;;1.39;66.63;100849.64;124725;1099;104390;-80
2022/03/09 09:50:41;;;;;;;16.27;7.10;;;;;;;1.39;65.47;100849.64;124494;1099;104807;-80
2022/03/09 09:53:22;;;;;;;15.30;7.07;;;;;;;1.36;65.22;100864.92;124125;1098;104293;-81
2022/03/09 09:55:58;;;;;;;20.67;7.10;;;;;;;1.30;64.15;100875.67;123985;1099;104236;-80
2022/03/09 09:58:43;;;;;;;15.30;7.50;;;;;;;1.29;64.40;100852.28;124585;1099;104239;-79
2022/03/09 10:01:37;;;;;;;17.90;7.30;;;;;;;1.50;64.91;100858.23;124053;1099;104255;-81
2022/03/09 10:04:15;;;;;;;18.03;8.17;;;;;;;1.40;64.86;100851.42;123893;1099;104347;-79
2022/03/09 10:06:51;;;;;;;16.43;7.57;;;;;;;1.45;64.20;100860.47;124226;1099;104165;-79
2022/03/09 10:09:35;;;;;;;18.10;7.90;;;;;;;1.58;65.10;100852.85;124150;1099;104419;-80
2022/03/09 10:12:26;;;;;;;15.33;7.13;;;;;;;1.61;63.71;100855.67;123869;1099;104248;-80
2022/03/09 10:15:05;;;;;;;14.50;6.80;;;;;;;1.47;63.61;100869.23;124789;1098;104628;-80
2022/03/09 10:17:42;;;;;;;20.17;8.33;;;;;;;1.51;62.46;100866.11;124378;1099;104194;-79
2022/03/09 10:20:28;;;;;;;21.90;8.70;;;;;;;1.62;64.89;100861.74;124500;1099;104264;-82
2022/03/09 10:23:03;;;;;;;16.17;6.83;;;;;;;1.62;63.50;100843.63;125320;1099;105226;-81
2022/03/09 10:26:03;;;;;;;14.77;6.47;;;;;;;1.40;60.55;100849.77;125329;1099;104269;-80
2022/03/09 10:28:42;;;;;;;14.90;7.00;;;;;;;1.38;62.78;100856.48;124671;1097;104239;-81
2022/03/09 10:31:31;;;;;;;17.67;7.13;;;;;;;1.42;63.21;100855.94;125132;1099;104216;-80
2022/03/09 10:34:21;;;;;;;15.33;7.03;;;;;;;1.49;61.92;100856.42;124301;1099;104238;-80
2022/03/09 10:37:01;;;;;;;17.47;8.10;;;;;;;1.45;63.05;100844.95;124013;1099;104217;-80
2022/03/09 10:39:48;;;;;;;17.93;8.00;;;;;;;1.40;63.49;100852.34;124128;1099;104421;-79
2022/03/09 10:42:30;;;;;;;13.23;6.80;;;;;;;1.42;62.65;100860.23;124169;1099;104352;-80
2022/03/09 10:45:17;;;;;;;18.20;8.00;;;;;;;1.51;62.58;100855.77;124400;1099;104281;-81
2022/03/09 10:47:53;;;;;;;15.50;7.80;;;;;;;1.50;62.69;100866.00;124675;1099;104402;-80
2022/03/09 10:51:03;;;;;;;15.50;6.93;;;;;;;1.41;62.48;100859.30;124429;1099;104207;-80
2022/03/09 10:53:49;;;;;;;14.63;7.23;;;;;;;1.40;62.31;100864.35;124984;1099;104261;-78
2022/03/09 10:56:25;;;;;;;16.63;7.50;;;;;;;1.47;63.61;100853.72;124465;1099;104216;-79
2022/03/09 10:59:30;;;;;;;19.90;7.40;;;;;;;1.55;62.52;100872.42;123983;1099;104194;-77
2022/03/09 11:02:29;;;;;;;16.83;7.80;;;;;;;1.61;63.25;100852.20;124228;1099;104441;-79
2022/03/09 11:05:42;;;;;;;;;;;;;;;;;;;;;
2022/03/09 11:08:30;;;;;;;16.70;6.83;;;;;;;1.70;63.28;100847.73;125377;1097;104219;-81
2022/03/09 11:11:21;;;;;;;17.00;7.07;;;;;;;1.68;62.81;100848.39;125299;1099;104192;-82
2022/03/09 11:13:52;;;;;;;;;;;;;;;1.63;62.36;100845.45;125102;1099;102233;-82
2022/03/09 11:16:32;;;;;;;12.15;5.90;;;;;;;1.61;61.35;100847.03;125200;1099;104191;-81
2022/03/09 11:19:37;;;;;;;14.53;6.07;;;;;;;1.54;62.17;100844.73;125331;1099;104302;-81
2022/03/09 11:22:25;;;;;;;;;;;;;;;1.43;61.17;100846.48;125691;1098;104235;-80
2022/03/09 11:24:58;;;;;;;13.43;6.40;;;;;;;1.39;61.07;100847.95;125537;1098;102615;-81
2022/03/09 11:28:16;;;;;;;13.00;5.93;;;;;;;1.23;60.37;100839.77;125162;1099;104236;-80
2022/03/09 11:31:04;;;;;;;14.80;6.03;;;;;;;1.24;60.77;100854.50;125662;1098;104159;-81
2022/03/09 11:34:01;;;;;;;12.93;6.00;;;;;;;1.18;61.34;100841.98;124848;1099;104163;-80
2022/03/09 11:36:37;;;;;;;16.93;7.10;;;;;;;1.19;62.28;100856.73;125236;1099;104377;-81
2022/03/09 11:39:37;;;;;;;15.20;6.67;;;;;;;1.18;61.89;100856.61;124874;1099;111881;-81
2022/03/09 11:42:34;;;;;;;20.37;7.67;;;;;;;1.10;62.78;100849.94;125233;1099;104635;-80
2022/03/09 11:45:36;;;;;;;18.00;7.53;;;;;;;1.07;63.47;100859.23;124734;1099;104373;-81
2022/03/09 11:48:58;;;;;;;17.20;8.33;;;;;;;1.04;63.73;100865.84;124219;1099;104690;-78